Time;durP1;ratioP1;P1;durP2;ratioP2;P2;SDS_P1;SDS_P2;PMS_P1;PMS_P2;Temp;Humidity;BMP_temperature;BMP_pressure;BME280_temperature;BME280_humidity;BME280_pressure;Samples;Min_cycle;Max_cycle;Signal;HPM_P1;HPM_P2
2022/01/31 00:02:07;;;;;;;337.50;123.73;;;;;;;;;;5028237;28;20450;-63
2022/01/31 00:04:33;;;;;;;338.47;123.70;;;;;;;;;;5020108;28;20475;-64
2022/01/31 00:06:58;;;;;;;306.37;118.17;;;;;;;;;;5011735;28;20423;-65
2022/01/31 00:09:25;;;;;;;312.10;114.70;;;;;;;;;;5028726;28;20411;-63
2022/01/31 00:11:59;;;;;;;304.50;117.83;;;;;;;;;;5028133;28;20427;-64
2022/01/31 00:16:57;;;;;;;318.30;116.83;;;;;;;;;;5027503;28;20439;-64
2022/01/31 00:19:23;;;;;;;294.63;110.20;;;;;;;;;;5028724;28;20790;-65
2022/01/31 00:21:49;;;;;;;309.93;111.07;;;;;;;;;;5028135;28;20471;-63
2022/01/31 00:24:15;;;;;;;294.83;109.40;;;;;;;;;;5028516;28;20820;-63
2022/01/31 00:26:41;;;;;;;274.20;106.40;;;;;;;;;;5024210;28;20420;-62
2022/01/31 00:29:07;;;;;;;298.53;112.10;;;;;;;;;;5028831;28;20868;-63
2022/01/31 00:31:33;;;;;;;289.00;108.53;;;;;;;;;;5028518;28;20482;-63
2022/01/31 00:33:59;;;;;;;269.73;105.60;;;;;;;;;;5025826;28;20429;-63
2022/01/31 00:36:25;;;;;;;297.83;109.90;;;;;;;;;;5013414;28;20424;-63
2022/01/31 00:38:51;;;;;;;276.87;102.10;;;;;;;;;;5008983;28;20409;-64
2022/01/31 00:41:17;;;;;;;285.00;107.03;;;;;;;;;;5008664;28;20469;-63
2022/01/31 00:43:55;;;;;;;294.43;109.87;;;;;;;;;;5007973;28;20467;-63
2022/01/31 00:46:27;;;;;;;280.43;103.50;;;;;;;;;;5026485;28;20731;-63
2022/01/31 00:48:53;;;;;;;265.93;102.40;;;;;;;;;;5028287;28;20423;-63
2022/01/31 00:51:18;;;;;;;254.87;97.53;;;;;;;;;;5028772;28;20488;-63
2022/01/31 00:53:44;;;;;;;274.10;100.60;;;;;;;;;;5028098;28;20790;-64
2022/01/31 00:56:10;;;;;;;269.83;102.43;;;;;;;;;;5028553;28;20442;-63
2022/01/31 00:58:36;;;;;;;280.03;102.07;;;;;;;;;;5028303;28;20860;-64
2022/01/31 01:01:02;;;;;;;259.73;96.93;;;;;;;;;;5028090;28;20446;-64
2022/01/31 01:03:29;;;;;;;251.60;95.97;;;;;;;;;;5009743;28;20464;-64
2022/01/31 01:05:55;;;;;;;274.47;97.93;;;;;;;;;;5008308;28;20526;-64
2022/01/31 01:08:21;;;;;;;246.23;93.17;;;;;;;;;;5008698;28;20491;-64
2022/01/31 01:10:47;;;;;;;240.07;93.30;;;;;;;;;;5008295;28;20504;-63
2022/01/31 01:13:13;;;;;;;260.93;95.17;;;;;;;;;;5008576;28;20440;-64
2022/01/31 01:15:39;;;;;;;254.33;94.53;;;;;;;;;;5008410;28;20511;-64
2022/01/31 01:18:05;;;;;;;224.70;85.63;;;;;;;;;;5008383;28;20499;-64
2022/01/31 01:20:31;;;;;;;234.30;84.50;;;;;;;;;;5008096;28;20508;-65
2022/01/31 01:22:57;;;;;;;236.23;85.23;;;;;;;;;;5027355;28;20510;-63
2022/01/31 01:25:23;;;;;;;214.40;83.07;;;;;;;;;;5028066;28;20685;-63
2022/01/31 01:27:52;;;;;;;232.10;87.40;;;19.50;66.90;;;;;;5029010;28;20403;-63
2022/01/31 01:30:18;;;;;;;235.80;90.33;;;;;;;;;;5016813;28;20808;-63
2022/01/31 01:35:14;;;;;;;233.57;84.60;;;;;;;;;;5011330;28;20486;-63
2022/01/31 01:37:40;;;;;;;222.57;83.33;;;;;;;;;;5011378;28;20420;-63
2022/01/31 01:40:06;;;;;;;227.63;86.10;;;;;;;;;;5011442;28;20412;-63
2022/01/31 01:42:33;;;;;;;228.67;85.47;;;;;;;;;;5011660;28;20736;-63
2022/01/31 01:44:59;;;;;;;212.17;81.50;;;;;;;;;;5028165;28;20419;-64
2022/01/31 01:47:26;;;;;;;230.57;87.40;;;;;;;;;;5031251;28;20414;-64
2022/01/31 01:49:53;;;;;;;213.33;84.23;;;19.50;51.30;;;;;;5017281;28;20413;-63
2022/01/31 01:52:18;;;;;;;201.37;82.90;;;19.60;56.60;;;;;;5025102;28;20448;-63
2022/01/31 01:54:48;;;;;;;218.10;82.90;;;18.00;47.20;;;;;;5011801;28;20451;-63
2022/01/31 01:57:15;;;;;;;202.03;79.93;;;19.60;74.10;;;;;;5011425;28;20220;-63
2022/01/31 01:59:42;;;;;;;218.73;83.77;;;19.30;55.40;;;;;;5011431;28;20909;-63
2022/01/31 02:02:08;;;;;;;206.00;80.67;;;;;;;;;;5010874;28;20460;-64
2022/01/31 02:04:34;;;;;;;206.27;78.70;;;19.60;49.20;;;;;;5011618;28;20423;-63
2022/01/31 02:06:59;;;;;;;199.47;76.73;;;19.70;59.60;;;;;;5019165;28;20420;-63
2022/01/31 02:09:26;;;;;;;205.97;79.43;;;;;;;;;;5011515;28;20527;-63
2022/01/31 02:11:57;;;;;;;211.23;75.03;;;;;;;;;;5010671;28;20208;-65
2022/01/31 02:14:23;;;;;;;197.53;73.57;;;;;;;;;;5028147;28;20507;-64
2022/01/31 02:16:50;;;;;;;188.93;72.33;;;18.80;51.10;;;;;;5028386;28;20462;-64
2022/01/31 02:19:17;;;;;;;199.93;74.00;;;19.60;62.30;;;;;;5030762;28;20416;-63
2022/01/31 02:21:49;;;;;;;193.93;70.00;;;19.80;56.60;;;;;;5030656;28;20454;-64
2022/01/31 02:24:15;;;;;;;183.70;67.53;;;19.80;71.70;;;;;;5016170;28;20428;-63
2022/01/31 02:26:41;;;;;;;185.37;66.43;;;;;;;;;;5021418;28;20412;-63
2022/01/31 02:29:11;;;;;;;170.77;64.97;;;;;;;;;;5030225;28;20177;-64
2022/01/31 02:31:37;;;;;;;178.57;65.90;;;;;;;;;;5030337;28;20423;-63
2022/01/31 02:34:03;;;;;;;177.97;66.17;;;;;;;;;;5029618;28;20419;-63
2022/01/31 02:36:29;;;;;;;177.90;68.87;;;;;;;;;;5030316;28;20714;-63
2022/01/31 02:38:54;;;;;;;182.47;66.67;;;;;;;;;;5029570;28;20576;-64
2022/01/31 02:41:20;;;;;;;186.80;68.27;;;;;;;;;;5026072;28;20424;-63
2022/01/31 02:43:50;;;;;;;177.73;65.97;;;;;;;;;;5016881;28;20541;-63
2022/01/31 02:46:16;;;;;;;174.27;66.03;;;19.30;57.90;;;;;;5030041;28;20415;-63
2022/01/31 02:48:42;;;;;;;167.27;69.97;;;;;;;;;;5030073;28;20767;-63
2022/01/31 02:51:10;;;;;;;175.70;65.43;;;;;;;;;;5029423;28;20415;-63
2022/01/31 02:53:41;;;;;;;157.47;62.37;;;19.50;51.80;;;;;;5011059;28;20451;-63
2022/01/31 02:56:07;;;;;;;170.57;60.30;;;;;;;;;;5010581;28;20432;-63
2022/01/31 02:58:33;;;;;;;165.40;64.87;;;;;;;;;;5010431;28;20515;-63
2022/01/31 03:00:59;;;;;;;187.77;68.57;;;;;;;;;;5010501;28;20835;-63
2022/01/31 03:03:26;;;;;;;161.23;62.87;;;19.50;50.70;;;;;;5013754;28;20463;-63
2022/01/31 03:05:52;;;;;;;167.10;60.93;;;;;;;;;;5030330;28;20415;-63
2022/01/31 03:08:18;;;;;;;162.57;61.90;;;;;;;;;;5030278;28;20433;-63
2022/01/31 03:10:44;;;;;;;163.27;60.20;;;;;;;;;;5030013;28;20403;-63
2022/01/31 03:13:10;;;;;;;152.97;62.20;;;;;;;;;;5015828;28;20444;-63
2022/01/31 03:15:36;;;;;;;153.33;55.27;;;;;;;;;;5030199;28;20414;-63
2022/01/31 03:18:03;;;;;;;150.63;54.57;;;;;;;;;;5029700;28;20518;-63
2022/01/31 03:20:29;;;;;;;136.13;52.50;;;;;;;;;;5029858;28;20403;-63
2022/01/31 03:22:55;;;;;;;148.67;53.67;;;;;;;;;;5049479;28;20465;-64
2022/01/31 03:25:21;;;;;;;147.07;57.47;;;;;;;;;;5011459;28;20423;-64
2022/01/31 03:27:48;;;;;;;137.73;54.73;;;19.50;51.60;;;;;;5029751;28;20922;-63
2022/01/31 03:30:18;;;;;;;143.53;54.03;;;18.70;51.30;;;;;;5029534;28;20908;-64
2022/01/31 03:32:44;;;;;;;131.23;53.37;;;19.80;69.70;;;;;;5029763;28;20530;-64
2022/01/31 03:35:11;;;;;;;136.13;53.53;;;;;;;;;;5029502;28;20585;-63
2022/01/31 03:37:37;;;;;;;129.43;50.77;;;;;;;;;;5029704;28;20412;-64
2022/01/31 03:40:04;;;;;;;139.60;50.97;;;19.40;51.40;;;;;;5028702;28;20504;-65
2022/01/31 03:42:30;;;;;;;120.77;50.30;;;;;;;;;;5029407;28;20471;-64
2022/01/31 03:44:56;;;;;;;138.27;52.23;;;20.00;55.80;;;;;;5013898;28;20439;-63
2022/01/31 03:47:22;;;;;;;139.40;50.37;;;19.40;57.50;;;;;;5009683;28;20416;-63
2022/01/31 03:49:49;;;;;;;128.50;52.63;;;19.80;53.20;;;;;;5009321;28;20173;-64
2022/01/31 03:52:16;;;;;;;133.10;51.40;;;;;;;;;;5009304;28;20200;-64
2022/01/31 03:54:42;;;;;;;140.33;50.97;;;;;;;;;;5022558;28;20435;-65
2022/01/31 03:57:08;;;;;;;132.20;53.10;;;;;;;;;;5029285;28;20412;-64
2022/01/31 03:59:34;;;;;;;135.33;51.47;;;;;;;;;;5029391;28;20477;-64
2022/01/31 04:02:02;;;;;;;121.00;49.57;;;;;;;;;;5029084;28;20505;-63
2022/01/31 04:04:28;;;;;;;122.27;50.23;;;;;;;;;;5017929;28;20427;-63
2022/01/31 04:06:54;;;;;;;140.63;53.10;;;;;;;;;;5009576;28;20404;-65
2022/01/31 04:09:20;;;;;;;122.63;49.37;;;;;;;;;;5009657;28;20456;-65
2022/01/31 04:11:46;;;;;;;119.90;46.17;;;;;;;;;;5009420;28;20451;-64
2022/01/31 04:14:12;;;;;;;113.20;46.13;;;;;;;;;;5018084;28;20423;-64
2022/01/31 04:16:38;;;;;;;126.93;46.50;;;;;;;;;;5029332;28;20938;-63
2022/01/31 04:19:04;;;;;;;107.10;44.13;;;;;;;;;;5024793;28;20423;-65
2022/01/31 04:21:30;;;;;;;126.57;50.00;;;;;;;;;;5024704;28;20510;-63
2022/01/31 04:23:58;;;;;;;110.27;45.87;;;;;;;;;;5021940;28;20531;-63
2022/01/31 04:26:31;;;;;;;99.70;42.20;;;;;;;;;;5017755;28;20537;-63
2022/01/31 04:29:04;;;;;;;110.60;45.53;;;;;;;;;;5028826;28;20780;-64
2022/01/31 04:31:44;;;;;;;114.87;44.70;;;;;;;;;;5028749;28;20476;-64
2022/01/31 04:34:10;;;;;;;119.17;45.33;;;;;;;;;;5026266;28;20481;-63
2022/01/31 04:36:36;;;;;;;104.43;41.93;;;;;;;;;;5026207;28;20533;-63
2022/01/31 04:39:03;;;;;;;104.77;42.83;;;17.60;51.00;;;;;;5009187;28;20844;-63
2022/01/31 04:41:29;;;;;;;94.23;39.57;;;19.40;63.60;;;;;;5008884;28;20923;-64
2022/01/31 04:43:59;;;;;;;106.73;41.80;;;;;;;;;;5015024;28;20459;-65
2022/01/31 04:46:25;;;;;;;95.07;37.27;;;;;;;;;;5028949;28;20282;-64
2022/01/31 04:48:51;;;;;;;105.27;39.47;;;;;;;;;;5028659;28;20415;-63
2022/01/31 04:51:16;;;;;;;100.27;39.13;;;;;;;;;;5028644;28;20425;-64
2022/01/31 04:53:43;;;;;;;93.33;37.77;;;;;;;;;;5024358;28;20864;-63
2022/01/31 04:56:08;;;;;;;97.27;38.93;;;;;;;;;;5008934;28;20523;-63
2022/01/31 04:58:35;;;;;;;95.97;40.20;;;;;;;;;;5008976;28;20508;-64
2022/01/31 05:01:01;;;;;;;97.20;40.03;;;;;;;;;;5008770;28;20495;-64
2022/01/31 05:03:27;;;;;;;91.47;37.97;;;;;;;;;;5013749;28;20897;-63
2022/01/31 05:05:53;;;;;;;90.33;36.07;;;;;;;;;;5032381;28;20443;-63
2022/01/31 05:08:25;;;;;;;95.43;37.33;;;;;;;;;;5032239;28;20411;-65
2022/01/31 05:10:50;;;;;;;94.80;37.60;;;19.10;61.20;;;;;;5032290;28;20412;-64
2022/01/31 05:13:16;;;;;;;81.73;35.27;;;19.60;55.60;;;;;;5031629;28;20445;-63
2022/01/31 05:15:43;;;;;;;73.67;30.83;;;19.30;49.80;;;;;;5012544;28;20243;-63
2022/01/31 05:18:09;;;;;;;79.87;35.70;;;;;;;;;;5012550;28;20416;-63
2022/01/31 05:20:35;;;;;;;74.90;35.17;;;;;;;;;;5013523;28;20414;-63
2022/01/31 05:23:01;;;;;;;81.10;36.23;;;;;;;;;;5051885;28;20572;-63
2022/01/31 05:25:27;;;;;;;84.73;35.80;;;;;;;;;;5016803;28;20448;-64
2022/01/31 05:27:53;;;;;;;81.43;34.83;;;;;;;;;;5031754;28;20408;-63
2022/01/31 05:30:21;;;;;;;85.57;35.50;;;;;;;;;;5031769;28;20749;-63
2022/01/31 05:32:47;;;;;;;84.67;35.70;;;;;;;;;;5021383;28;20440;-63
2022/01/31 05:35:13;;;;;;;80.83;33.57;;;;;;;;;;5027647;28;20728;-63
2022/01/31 05:37:40;;;;;;;88.23;35.97;;;;;;;;;;5031966;28;20416;-63
2022/01/31 05:40:06;;;;;;;85.70;35.07;;;19.50;76.60;;;;;;5031396;28;20486;-63
2022/01/31 05:42:32;;;;;;;88.20;35.93;;;;;;;;;;5031052;28;20567;-65
2022/01/31 05:44:58;;;;;;;81.47;34.37;;;;;;;;;;5017647;28;20447;-64
2022/01/31 05:47:25;;;;;;;84.80;32.30;;;;;;;;;;5011410;28;20745;-63
2022/01/31 05:49:51;;;;;;;71.50;31.37;;;;;;;;;;5026754;28;20856;-63
2022/01/31 05:52:17;;;;;;;74.20;31.70;;;;;;;;;;5028192;28;20538;-63
2022/01/31 05:54:43;;;;;;;79.67;31.77;;;;;;;;;;5030688;28;20431;-64
2022/01/31 05:57:10;;;;;;;84.13;33.40;;;;;;;;;;5031074;28;20403;-64
2022/01/31 05:59:41;;;;;;;69.40;29.90;;;19.10;51.60;;;;;;5030767;28;20430;-64
2022/01/31 06:02:07;;;;;;;68.70;29.03;;;;;;;;;;5020489;28;20467;-63
2022/01/31 06:04:33;;;;;;;72.57;30.37;;;;;;;;;;5030945;28;20410;-65
2022/01/31 06:06:59;;;;;;;76.30;29.53;;;;;;;;;;5031022;28;20419;-62
2022/01/31 06:09:27;;;;;;;76.53;28.13;;;;;;;;;;5030416;28;20420;-64
2022/01/31 06:11:53;;;;;;;69.93;28.47;;;;;;;;;;5024237;28;20534;-63
2022/01/31 06:14:19;;;;;;;61.80;27.20;;;;;;;;;;5010231;28;20451;-63
2022/01/31 06:16:45;;;;;;;63.73;27.40;;;;;;;;;;5011399;28;20524;-63
2022/01/31 06:19:11;;;;;;;71.83;28.30;;;;;;;;;;5011047;28;20436;-63
2022/01/31 06:21:37;;;;;;;62.57;27.90;;;;;;;;;;5020677;28;20444;-63
2022/01/31 06:24:09;;;;;;;54.10;26.37;;;;;;;;;;5010744;28;20412;-63
2022/01/31 06:26:36;;;;;;;68.43;27.27;;;;;;;;;;5016546;28;21016;-64
2022/01/31 06:29:02;;;;;;;75.10;31.50;;;;;;;;;;5015321;28;20850;-59
2022/01/31 06:31:29;;;;;;;65.67;29.20;;;;;;;;;;5026741;28;20885;-59
2022/01/31 06:33:55;;;;;;;55.90;25.57;;;;;;;;;;5027831;28;20435;-61
2022/01/31 06:36:23;;;;;;;57.03;23.13;;;;;;;;;;5024781;28;20489;-59
2022/01/31 06:38:49;;;;;;;48.87;21.50;;;;;;;;;;5028883;28;20510;-62
2022/01/31 06:41:17;;;;;;;47.03;20.47;;;;;;;;;;5025719;28;20508;-63
2022/01/31 06:43:44;;;;;;;41.07;18.67;;;19.30;75.30;;;;;;5028031;28;20520;-62
2022/01/31 06:46:10;;;;;;;39.43;17.57;;;;;;;;;;5013418;28;20435;-62
2022/01/31 06:48:36;;;;;;;36.97;17.00;;;;;;;;;;5028667;28;20411;-64
2022/01/31 06:51:02;;;;;;;36.47;16.63;;;;;;;;;;5029339;28;20960;-63
2022/01/31 06:53:29;;;;;;;32.70;15.00;;;;;;;;;;5030474;28;20840;-64
2022/01/31 06:55:55;;;;;;;34.83;15.67;;;;;;;;;;5029971;28;20892;-65
2022/01/31 06:58:21;;;;;;;31.17;14.93;;;;;;;;;;5025006;28;20424;-63
2022/01/31 07:00:47;;;;;;;33.87;14.00;;;;;;;;;;5023832;28;20413;-63
2022/01/31 07:03:13;;;;;;;30.77;15.10;;;;;;;;;;5025301;28;20928;-63
2022/01/31 07:05:40;;;;;;;29.30;14.00;;;19.30;50.90;;;;;;5029948;28;20511;-61
2022/01/31 07:08:06;;;;;;;32.17;14.07;;;;;;;;;;5030090;28;20497;-61
2022/01/31 07:10:33;;;;;;;29.93;13.87;;;;;;;;;;5029925;28;20411;-60
2022/01/31 07:13:01;;;;;;;36.03;14.57;;;;;;;;;;5028252;28;20447;-64
2022/01/31 07:15:27;;;;;;;32.60;14.33;;;;;;;;;;5029699;28;20468;-63
2022/01/31 07:17:54;;;;;;;31.50;14.97;;;;;;;;;;5009975;28;20436;-64
2022/01/31 07:20:34;;;;;;;30.80;14.57;;;;;;;;;;5009580;28;20431;-63
2022/01/31 07:23:01;;;;;;;30.67;13.40;;;;;;;;;;5038607;28;20783;-64
2022/01/31 07:25:36;;;;;;;29.87;14.33;;;;;;;;;;5025256;28;20514;-63
2022/01/31 07:28:07;;;;;;;39.33;15.67;;;19.50;51.50;;;;;;5026231;28;20505;-64
2022/01/31 07:30:33;;;;;;;32.97;14.47;;;;;;;;;;5017091;28;20424;-63
2022/01/31 07:32:59;;;;;;;32.17;14.30;;;;;;;;;;5026331;28;20824;-63
2022/01/31 07:35:25;;;;;;;29.63;13.47;;;;;;;;;;5020276;28;20419;-63
2022/01/31 07:37:51;;;;;;;30.33;13.80;;;;;;;;;;5029078;28;20412;-65
2022/01/31 07:40:17;;;;;;;28.60;13.27;;;;;;;;;;5028862;28;20423;-65
2022/01/31 07:42:43;;;;;;;35.77;14.23;;;;;;;;;;5028998;28;20517;-64
2022/01/31 07:45:09;;;;;;;29.87;12.30;;;;;;;;;;5027898;28;20892;-65
2022/01/31 07:47:35;;;;;;;28.43;13.00;;;;;;;;;;5026174;28;20507;-65
2022/01/31 07:50:03;;;;;;;29.33;13.30;;;;;;;;;;5027972;28;20430;-63
2022/01/31 07:52:29;;;;;;;29.60;13.47;;;;;;;;;;5027431;28;20589;-66
2022/01/31 07:54:55;;;;;;;31.40;12.97;;;;;;;;;;5025132;28;20444;-62
2022/01/31 07:57:24;;;;;;;29.57;13.30;;;;;;;;;;5022160;28;20442;-62
2022/01/31 07:59:50;;;;;;;27.77;13.20;;;;;;;;;;5026530;28;20461;-63
2022/01/31 08:02:16;;;;;;;28.97;12.60;;;;;;;;;;5026107;28;20478;-62
2022/01/31 08:04:42;;;;;;;27.60;12.73;;;19.60;78.60;;;;;;5028426;28;20439;-62
2022/01/31 08:07:08;;;;;;;31.23;13.27;;;;;;;;;;5027407;28;20904;-62
2022/01/31 08:09:34;;;;;;;25.97;12.00;;;;;;;;;;5029103;28;20176;-63
2022/01/31 08:12:00;;;;;;;28.80;12.03;;;;;;;;;;5028741;28;20436;-64
2022/01/31 08:14:25;;;;;;;30.33;14.90;;;19.80;60.00;;;;;;5028972;28;20426;-63
2022/01/31 08:16:51;;;;;;;32.10;13.00;;;;;;;;;;5029177;28;20407;-65
2022/01/31 08:19:17;;;;;;;25.30;12.90;;;;;;;;;;5028844;28;20675;-61
2022/01/31 08:21:44;;;;;;;27.63;12.60;;;;;;;;;;5038300;28;20520;-60
2022/01/31 08:24:10;;;;;;;26.87;12.40;;;;;;;;;;5047231;28;20422;-62
2022/01/31 08:26:36;;;;;;;27.67;12.30;;;;;;;;;;5038447;28;20407;-64
2022/01/31 08:29:09;;;;;;;29.00;12.37;;;;;;;;;;5028586;28;20419;-64
2022/01/31 08:31:37;;;;;;;22.70;10.67;;;;;;;;;;5025797;28;20460;-59
2022/01/31 08:34:22;;;;;;;23.30;11.20;;;19.60;51.60;;;;;;5008935;28;20878;-60
2022/01/31 08:36:48;;;;;;;26.80;12.50;;;;;;;;;;5009806;28;20853;-63
2022/01/31 08:39:21;;;;;;;26.27;12.80;;;19.70;48.10;;;;;;5013319;28;20430;-62
2022/01/31 08:41:52;;;;;;;21.57;11.10;;;19.70;51.50;;;;;;5021081;28;20463;-62
2022/01/31 08:44:20;;;;;;;24.83;12.27;;;19.50;64.50;;;;;;5015408;28;20424;-65
2022/01/31 08:46:47;;;;;;;25.00;12.03;;;19.50;51.60;;;;;;5013020;28;20407;-64
2022/01/31 08:49:14;;;;;;;24.70;12.00;;;;;;;;;;5012888;28;20430;-65
2022/01/31 08:51:40;;;;;;;22.53;10.97;;;19.30;49.40;;;;;;5027966;28;20511;-62
2022/01/31 08:54:07;;;;;;;22.57;12.53;;;19.70;49.90;;;;;;5017874;28;20446;-63
2022/01/31 08:56:43;;;;;;;26.37;12.53;;;19.70;51.70;;;;;;5027977;28;20888;-63
2022/01/31 08:59:16;;;;;;;28.80;11.67;;;19.70;51.40;;;;;;5012769;28;20458;-63
2022/01/31 09:01:43;;;;;;;21.03;10.90;;;19.70;51.60;;;;;;5020772;28;20439;-62
2022/01/31 09:04:11;;;;;;;26.93;11.40;;;;;;;;;;5049119;28;20527;-60
2022/01/31 09:06:37;;;;;;;25.60;11.57;;;;;;;;;;5030963;28;20458;-63
2022/01/31 09:09:08;;;;;;;23.47;11.00;;;19.70;51.90;;;;;;5020523;28;20510;-63
2022/01/31 09:11:36;;;;;;;25.37;11.30;;;;;;;;;;5012284;28;20436;-62
2022/01/31 09:14:02;;;;;;;18.63;10.23;;;19.70;51.70;;;;;;5031331;28;20419;-62
2022/01/31 09:16:29;;;;;;;23.13;11.60;;;;;;;;;;5032095;28;20868;-64
2022/01/31 09:18:54;;;;;;;24.10;11.10;;;19.80;70.50;;;;;;5031941;28;20446;-64
2022/01/31 09:21:20;;;;;;;24.13;11.27;;;19.70;60.40;;;;;;5038530;28;20797;-64
2022/01/31 09:23:51;;;;;;;19.10;9.63;;;19.70;49.80;;;;;;5051619;28;20302;-63
2022/01/31 09:26:18;;;;;;;22.77;10.80;;;;;;;;;;5018503;28;20276;-62
2022/01/31 09:28:44;;;;;;;24.40;11.27;;;;;;;;;;5031610;28;20946;-64
2022/01/31 09:31:10;;;;;;;27.00;11.23;;;;;;;;;;5031644;28;20967;-63
2022/01/31 09:33:36;;;;;;;16.53;9.80;;;;;;;;;;5026335;28;20547;-63
2022/01/31 09:36:02;;;;;;;20.80;9.97;;;;;;;;;;5011851;28;20752;-60
2022/01/31 09:38:28;;;;;;;18.57;10.80;;;;;;;;;;5012679;28;20509;-61
2022/01/31 09:40:54;;;;;;;26.20;11.63;;;;;;;;;;5026749;28;20952;-64
2022/01/31 09:44:13;;;;;;;20.33;10.10;;;19.70;48.90;;;;;;5029792;28;20970;-62
2022/01/31 09:48:55;;;;;;;17.83;9.23;;;;;;;;;;5018078;28;20921;-65
2022/01/31 09:51:24;;;;;;;20.00;9.87;;;19.80;51.50;;;;;;5029902;28;20510;-63
2022/01/31 09:53:58;;;;;;;18.63;9.80;;;19.80;48.00;;;;;;5031335;28;20519;-62
2022/01/31 09:56:27;;;;;;;18.00;9.80;;;19.80;51.40;;;;;;5030805;28;20915;-63
2022/01/31 09:58:55;;;;;;;19.00;9.33;;;19.80;51.40;;;;;;5031349;28;20423;-63
2022/01/31 10:01:28;;;;;;;18.23;9.30;;;19.50;54.60;;;;;;5023086;28;20463;-63
2022/01/31 10:04:03;;;;;;;16.80;8.57;;;19.80;48.00;;;;;;5020364;28;20616;-64
2022/01/31 10:06:31;;;;;;;13.00;8.33;;;19.80;51.20;;;;;;5031402;28;20425;-64
2022/01/31 10:09:05;;;;;;;16.67;9.00;;;19.80;48.10;;;;;;5030704;28;20451;-63
2022/01/31 10:11:40;;;;;;;16.97;9.50;;;19.80;52.70;;;;;;5026607;28;20510;-61
2022/01/31 10:17:06;;;;;;;18.50;9.03;;;19.80;51.50;;;;;;5022705;28;20454;-64
2022/01/31 10:19:40;;;;;;;11.60;7.57;;;19.80;48.00;;;;;;5012244;28;20427;-63
2022/01/31 10:22:09;;;;;;;15.73;9.20;;;20.00;51.30;;;;;;5037512;28;20485;-64
2022/01/31 10:24:37;;;;;;;17.43;8.77;;;19.90;51.50;;;;;;5018846;28;20432;-63
2022/01/31 10:27:10;;;;;;;10.60;6.73;;;19.90;48.10;;;;;;5024919;28;20938;-63
2022/01/31 10:29:36;;;;;;;19.70;9.90;;;;;;;;;;5030341;28;20461;-62
2022/01/31 10:32:10;;;;;;;14.90;8.10;;;19.90;47.90;;;;;;5016991;28;20442;-62
2022/01/31 10:34:57;;;;;;;19.03;8.80;;;19.90;48.10;;;;;;5023618;28;20991;-61
2022/01/31 10:37:25;;;;;;;16.07;8.50;;;20.00;51.30;;;;;;5010822;28;20428;-62
2022/01/31 10:51:55;;;;;;;13.37;7.23;;;19.70;47.60;;;;;;5028288;28;20841;-63
2022/01/31 10:54:01;;;;;;;14.47;6.80;;;19.80;48.10;;;;;;5026229;28;20430;-64
2022/01/31 10:56:34;;;;;;;11.10;6.80;;;19.70;51.50;;;;;;5027985;28;20439;-63
2022/01/31 10:59:23;;;;;;;13.97;7.20;;;19.80;47.90;;;;;;5022332;28;21014;-63
2022/01/31 11:01:57;;;;;;;11.70;5.80;;;19.40;47.90;;;;;;5028564;28;20431;-64
2022/01/31 11:04:24;;;;;;;10.20;6.60;;;;;;;;;;5021402;28;21016;-64
2022/01/31 11:06:58;;;;;;;13.20;6.80;;;19.80;51.20;;;;;;5016014;28;20411;-64
2022/01/31 11:09:24;;;;;;;12.73;7.00;;;;;;;;;;5029753;28;20415;-63
2022/01/31 11:11:51;;;;;;;9.33;5.83;;;19.90;51.70;;;;;;5029971;28;20513;-64
2022/01/31 11:14:17;;;;;;;10.70;6.63;;;19.70;51.40;;;;;;5024911;28;20972;-63
2022/01/31 11:16:46;;;;;;;9.53;5.73;;;19.80;51.60;;;;;;5010660;28;20539;-64
2022/01/31 11:19:15;;;;;;;13.37;6.37;;;19.90;50.80;;;;;;5027420;28;20430;-63
2022/01/31 11:21:46;;;;;;;15.17;7.00;;;19.60;51.40;;;;;;5010204;28;20828;-66
2022/01/31 11:24:22;;;;;;;13.63;7.43;;;19.90;48.10;;;;;;5018096;28;20908;-61
2022/01/31 11:26:58;;;;;;;14.33;7.20;;;19.90;51.70;;;;;;5021123;28;20422;-63
2022/01/31 11:29:25;;;;;;;18.27;8.13;;;;;;;;;;5023424;28;20427;-63
2022/01/31 11:31:51;;;;;;;10.10;6.80;;;;;;;;;;5028938;28;20535;-62
2022/01/31 11:34:17;;;;;;;11.30;6.50;;;;;;;;;;5028086;28;20510;-63
2022/01/31 11:36:43;;;;;;;7.90;5.37;;;19.80;51.20;;;;;;5029523;28;20879;-62
2022/01/31 11:39:12;;;;;;;15.10;7.00;;;19.90;51.10;;;;;;5016592;28;20424;-63
2022/01/31 11:42:04;;;;;;;11.47;6.50;;;19.30;47.70;;;;;;5009862;28;20450;-63
2022/01/31 11:44:52;;;;;;;9.40;6.30;;;19.70;47.60;;;;;;5010194;28;20439;-62
2022/01/31 11:47:25;;;;;;;12.73;6.97;;;19.90;47.70;;;;;;5026849;28;20845;-63
2022/01/31 11:50:04;;;;;;;9.10;6.57;;;19.90;51.10;;;;;;5010604;28;21058;-63
2022/01/31 11:52:32;;;;;;;10.93;6.70;;;19.90;51.10;;;;;;5009751;28;20467;-63
2022/01/31 11:55:01;;;;;;;10.50;6.33;;;19.90;51.00;;;;;;5009472;28;20889;-63
2022/01/31 11:57:33;;;;;;;13.67;7.70;;;19.80;51.20;;;;;;5012895;28;20486;-62
2022/01/31 12:00:05;;;;;;;8.10;5.70;;;20.30;51.10;;;;;;5035746;28;20479;-63
2022/01/31 12:02:33;;;;;;;9.93;6.20;;;19.90;50.90;;;;;;5029029;28;20494;-63
2022/01/31 12:05:07;;;;;;;9.60;5.53;;;19.80;47.50;;;;;;5023202;28;20487;-63
2022/01/31 12:07:33;;;;;;;12.37;7.07;;;;;;;;;;5030344;28;20417;-63
2022/01/31 12:10:00;;;;;;;11.13;5.50;;;19.90;53.40;;;;;;5038582;28;20488;-63
2022/01/31 12:12:36;;;;;;;9.37;5.80;;;20.00;50.70;;;;;;5023522;28;20554;-64
2022/01/31 12:15:33;;;;;;;8.27;5.33;;;19.80;47.50;;;;;;5026280;28;20481;-63
2022/01/31 12:24:01;;;;;;;7.13;4.63;;;19.90;51.20;;;;;;5049471;28;20449;-63
2022/01/31 12:26:27;;;;;;;7.87;5.00;;;;;;;;;;5040206;28;20407;-62
2022/01/31 12:29:00;;;;;;;8.37;4.90;;;19.80;47.40;;;;;;5036680;28;20426;-63
2022/01/31 12:31:43;;;;;;;8.47;5.73;;;19.80;47.40;;;;;;5023379;28;20414;-62
2022/01/31 12:34:35;;;;;;;11.00;5.30;;;19.80;47.60;;;;;;5015768;28;20423;-62
2022/01/31 12:37:23;;;;;;;6.20;4.97;;;19.80;50.90;;;;;;5016027;28;20431;-62
2022/01/31 12:40:01;;;;;;;8.87;5.47;;;19.80;51.30;;;;;;5023320;28;20499;-61
2022/01/31 12:45:14;;;;;;;9.97;5.10;;;19.80;50.70;;;;;;5008603;28;20481;-63
2022/01/31 12:48:05;;;;;;;8.13;4.80;;;20.10;50.80;;;;;;5014055;28;20851;-61
2022/01/31 12:50:31;;;;;;;7.23;5.10;;;;;;;;;;5028031;28;20419;-62
2022/01/31 12:53:03;;;;;;;8.10;5.67;;;;;;;;;;5027923;28;20427;-61
2022/01/31 12:55:30;;;;;;;7.87;5.00;;;;;;;;;;5028309;28;20995;-62
2022/01/31 12:57:56;;;;;;;10.23;4.63;;;19.80;49.70;;;;;;5021329;28;20938;-62
2022/01/31 13:00:39;;;;;;;8.90;5.30;;;19.80;47.30;;;;;;5012424;28;20438;-63
2022/01/31 13:03:05;;;;;;;6.20;3.90;;;19.80;49.50;;;;;;5023958;28;20474;-62
2022/01/31 13:05:35;;;;;;;6.77;3.97;;;19.70;55.20;;;;;;5026756;28;20419;-62
2022/01/31 13:08:01;;;;;;;7.03;5.27;;;;;;;;;;5009153;28;20790;-62
2022/01/31 13:10:37;;;;;;;9.00;4.80;;;19.70;50.70;;;;;;5011913;28;20529;-62
2022/01/31 13:13:04;;;;;;;8.40;4.80;;;20.00;61.00;;;;;;5008195;28;21018;-62
2022/01/31 13:15:30;;;;;;;7.00;4.20;;;;;;;;;;5008469;28;20412;-62
2022/01/31 13:18:06;;;;;;;7.60;5.37;;;19.90;47.90;;;;;;5008722;28;20814;-60
2022/01/31 13:20:32;;;;;;;9.47;4.60;;;19.90;51.10;;;;;;5027868;28;20430;-63
2022/01/31 13:22:59;;;;;;;6.90;5.33;;;;;;;;;;5049397;28;20461;-62
2022/01/31 13:25:25;;;;;;;10.40;5.37;;;;;;;;;;5051210;28;20421;-63
2022/01/31 13:27:51;;;;;;;9.33;5.30;;;;;;;;;;5032072;28;20450;-63
2022/01/31 13:30:25;;;;;;;7.77;5.10;;;20.10;48.60;;;;;;5030654;28;20489;-62
2022/01/31 13:32:51;;;;;;;5.20;4.03;;;;;;;;;;5032494;28;20432;-62
2022/01/31 13:35:17;;;;;;;6.73;4.83;;;;;;;;;;5024107;28;20523;-62
2022/01/31 13:38:07;;;;;;;6.33;4.40;;;20.00;47.70;;;;;;5012821;28;20499;-63
2022/01/31 13:40:43;;;;;;;8.73;5.23;;;20.00;50.90;;;;;;5030045;28;20213;-62
2022/01/31 13:43:11;;;;;;;6.40;4.70;;;;;;;;;;5031938;28;20557;-61
2022/01/31 13:46:11;;;;;;;7.20;4.80;;;20.10;52.00;;;;;;5031847;28;20498;-58
2022/01/31 13:51:36;;;;;;;7.40;4.80;;;20.00;47.60;;;;;;5023234;28;20423;-62
2022/01/31 13:54:19;;;;;;;9.50;5.80;;;20.10;47.80;;;;;;5030652;28;20504;-63
2022/01/31 13:56:53;;;;;;;6.40;4.70;;;20.20;47.90;;;;;;5018246;28;20570;-63
2022/01/31 13:59:20;;;;;;;6.87;4.40;;;20.10;51.20;;;;;;5011336;28;20419;-61
2022/01/31 14:01:46;;;;;;;6.10;4.70;;;;;;;;;;5010781;28;20435;-62
2022/01/31 14:04:15;;;;;;;7.20;4.80;;;20.10;49.60;;;;;;5011297;28;20784;-63
2022/01/31 14:06:41;;;;;;;7.10;4.50;;;;;;;;;;5011512;28;20429;-61
2022/01/31 14:09:09;;;;;;;5.70;4.40;;;20.10;50.90;;;;;;5024002;28;20426;-60
2022/01/31 14:11:41;;;;;;;7.73;4.50;;;20.20;51.20;;;;;;5030917;28;20449;-60
2022/01/31 14:14:10;;;;;;;6.87;4.70;;;20.20;48.90;;;;;;5030994;28;20427;-62